Time;durP1;ratioP1;P1;durP2;ratioP2;P2;SDS_P1;SDS_P2;PMS_P1;PMS_P2;Temp;Humidity;BMP_temperature;BMP_pressure;BME280_temperature;BME280_humidity;BME280_pressure;Samples;Min_cycle;Max_cycle;Signal;HPM_P1;HPM_P2
2024/04/29 00:00:10;;;;;;;;;;;;;;;;;;5303684;26;19985;-73
2024/04/29 00:02:39;;;;;;;;;;;;;;;;;;5296627;27;20458;-73
2024/04/29 00:05:05;;;;;;;;;;;;;;;;;;5296128;27;19962;-72
2024/04/29 00:07:34;;;;;;;;;;;;;;;;;;5302784;27;19963;-71
2024/04/29 00:10:00;;;;;;;;;;;;;;;;;;5302064;27;19935;-73
2024/04/29 00:12:28;;;;;;;;;;;;;;;;;;5301828;26;19930;-74
2024/04/29 00:14:55;;;;;;;;;;;;;;;;;;5304752;27;19934;-73
2024/04/29 00:17:23;;;;;;;;;;;;;;;;;;5305017;27;19935;-73
2024/04/29 00:19:49;;;;;;;;;;;;;;;;;;5297840;27;19937;-73
2024/04/29 00:22:18;;;;;;;;;;;;;;;;;;5304380;27;19931;-72
2024/04/29 00:24:44;;;;;;;;;;;;;;;;;;5304311;26;19938;-73
2024/04/29 00:27:13;;;;;;;;;;;;;;;;;;5301880;27;20657;-72
2024/04/29 00:29:39;;;;;;;;;;;;;;;;;;5304453;26;20334;-73
2024/04/29 00:32:08;;;;;;;;;;;;;;;;;;5303580;26;20279;-73
2024/04/29 00:34:34;;;;;;;;;;;;;;;;;;5304532;26;19931;-73
2024/04/29 00:37:02;;;;;;;;;;;;;;;;;;5305861;27;19931;-73
2024/04/29 00:39:28;;;;;;;;;;;;;;;;;;5304770;27;19930;-73
2024/04/29 00:41:57;;;;;;;;;;;;;;;;;;5286872;27;19937;-73
2024/04/29 00:44:23;;;;;;;;;;;;;;;;;;5301185;26;19930;-74
2024/04/29 00:46:52;;;;;;;;;;;;;;;;;;5301036;27;19938;-73
2024/04/29 00:49:18;;;;;;;;;;;;;;;;;;5300173;27;19930;-72
2024/04/29 00:51:47;;;;;;;;;;;;;;;;;;5304566;27;20496;-74
2024/04/29 00:54:13;;;;;;;;;;;;;;;;;;5305989;26;19934;-75
2024/04/29 00:56:41;;;;;;;;;;;;;;;;;;5304761;27;20012;-74
2024/04/29 00:59:08;;;;;;;;;;;;;;;;;;5304647;26;19938;-74
2024/04/29 01:01:39;;;;;;;;;;;;;;;;;;5306215;27;20002;-73
2024/04/29 01:04:05;;;;;;;;;;;;;;;;;;5297726;27;19931;-74
2024/04/29 01:06:34;;;;;;;;;;;;;;;;;;5306973;27;19934;-73
2024/04/29 01:09:02;;;;;;;;;;;;;;;;;;5306790;27;19931;-72
2024/04/29 01:11:28;;;;;;;;;;;;;;;;;;5305443;27;19931;-73
2024/04/29 01:13:57;;;;;;;;;;;;;;;;;;5304766;26;19962;-74
2024/04/29 01:16:23;;;;;;;;;;;;;;;;;;5302293;26;19949;-72
2024/04/29 01:18:52;;;;;;;;;;;;;;;;;;5299653;26;19963;-72
2024/04/29 01:21:18;;;;;;;;;;;;;;;;;;5303321;26;19938;-73
2024/04/29 01:23:47;;;;;;;;;;;;;;;;;;5301404;27;19930;-73
2024/04/29 01:26:13;;;;;;;;;;;;;;;;;;5300236;27;20328;-73
2024/04/29 01:28:42;;;;;;;;;;;;;;;;;;5304448;27;19942;-72
2024/04/29 01:31:08;;;;;;;;;;;;;;;;;;5305555;27;19930;-71
2024/04/29 01:33:36;;;;;;;;;;;;;;;;;;5297592;26;19946;-74
2024/04/29 01:36:03;;;;;;;;;;;;;;;;;;5304063;27;20314;-74
2024/04/29 01:38:31;;;;;;;;;;;;;;;;;;5306406;26;20276;-73
2024/04/29 01:40:57;;;;;;;;;;;;;;;;;;5304936;26;19930;-74
2024/04/29 01:43:26;;;;;;;;;;;;;;;;;;5306377;26;20018;-74
2024/04/29 01:45:52;;;;;;;;;;;;;;;;;;5305478;27;19934;-73
2024/04/29 01:48:21;;;;;;;;;;;;;;;;;;5297092;27;19935;-75
2024/04/29 01:50:47;;;;;;;;;;;;;;;;;;5303862;27;19930;-74
2024/04/29 01:53:16;;;;;;;;;;;;;;;;;;5305909;26;19942;-73
2024/04/29 01:55:42;;;;;;;;;;;;;;;;;;5303929;26;20365;-74
2024/04/29 01:58:12;;;;;;;;;;;;;;;;;;5302518;26;19938;-74
2024/04/29 02:00:38;;;;;;;;;;;;;;;;;;5302773;27;19938;-73
2024/04/29 02:03:06;;;;;;;;;;;;;;;;;;5306936;27;20049;-73
2024/04/29 02:05:32;;;;;;;;;;;;;;;;;;5305886;26;20246;-73
2024/04/29 02:08:01;;;;;;;;;;;;;;;;;;5300774;27;19930;-72
2024/04/29 02:10:27;;;;;;;;;;;;;;;;;;5300372;26;19931;-73
2024/04/29 02:12:56;;;;;;;;;;;;;;;;;;5304209;26;19954;-73
2024/04/29 02:15:22;;;;;;;;;;;;;;;;;;5304910;26;19930;-72
2024/04/29 02:17:51;;;;;;;;;;;;;;;;;;5304328;27;20030;-73
2024/04/29 02:20:17;;;;;;;;;;;;;;;;;;5304577;27;19938;-73
2024/04/29 02:22:45;;;;;;;;;;;;;;;;;;5304513;27;20007;-73
2024/04/29 02:25:11;;;;;;;;;;;;;;;;;;5295704;26;19942;-73
2024/04/29 02:27:40;;;;;;;;;;;;;;;;;;5297189;26;19931;-74
2024/04/29 02:30:06;;;;;;;;;;;;;;;;;;5301486;27;19934;-73
2024/04/29 02:32:35;;;;;;;;;;;;;;;;;;5304809;27;19938;-74
2024/04/29 02:35:01;;;;;;;;;;;;;;;;;;5305679;26;19930;-74
2024/04/29 02:37:31;;;;;;;;;;;;;;;;;;5307044;27;19938;-74
2024/04/29 02:39:57;;;;;;;;;;;;;;;;;;5305482;27;19934;-72
2024/04/29 02:42:25;;;;;;;;;;;;;;;;;;5304790;26;20258;-73
2024/04/29 02:44:51;;;;;;;;;;;;;;;;;;5296367;26;19942;-72
2024/04/29 02:47:20;;;;;;;;;;;;;;;;;;5288427;27;20000;-74
2024/04/29 02:49:46;;;;;;;;;;;;;;;;;;5302883;27;19930;-74
2024/04/29 02:52:15;;;;;;;;;;;;;;;;;;5301788;27;20375;-74
2024/04/29 02:54:41;;;;;;;;;;;;;;;;;;5302542;27;19999;-73
2024/04/29 02:57:10;;;;;;;;;;;;;;;;;;5301535;26;19930;-73
2024/04/29 02:59:36;;;;;;;;;;;;;;;;;;5302858;26;19931;-73
2024/04/29 03:02:05;;;;;;;;;;;;;;;;;;5304449;27;20393;-73
2024/04/29 03:04:31;;;;;;;;;;;;;;;;;;5299785;27;19946;-73
2024/04/29 03:06:59;;;;;;;;;;;;;;;;;;5299973;26;19966;-73
2024/04/29 03:09:26;;;;;;;;;;;;;;;;;;5303272;27;19942;-72
2024/04/29 03:11:54;;;;;;;;;;;;;;;;;;5303481;27;19966;-72
2024/04/29 03:14:20;;;;;;;;;;;;;;;;;;5303953;26;19941;-73
2024/04/29 03:16:49;;;;;;;;;;;;;;;;;;5305136;27;20043;-73
2024/04/29 03:19:15;;;;;;;;;;;;;;;;;;5294103;26;19934;-73
2024/04/29 03:21:44;;;;;;;;;;;;;;;;;;5305858;26;19938;-73
2024/04/29 03:24:10;;;;;;;;;;;;;;;;;;5306128;27;19931;-73
2024/04/29 03:26:39;;;;;;;;;;;;;;;;;;5305903;27;19948;-73
2024/04/29 03:29:05;;;;;;;;;;;;;;;;;;5305980;26;20382;-73
2024/04/29 03:31:33;;;;;;;;;;;;;;;;;;5305676;27;19939;-72
2024/04/29 03:33:59;;;;;;;;;;;;;;;;;;5306224;27;19938;-72
2024/04/29 03:36:28;;;;;;;;;;;;;;;;;;5303930;27;20000;-72
2024/04/29 03:38:57;;;;;;;;;;;;;;;;;;5301555;26;19937;-73
2024/04/29 03:41:26;;;;;;;;;;;;;;;;;;5302758;26;19937;-73
2024/04/29 03:43:54;;;;;;;;;;;;;;;;;;5302732;26;19938;-73
2024/04/29 03:46:23;;;;;;;;;;;;;;;;;;5302609;27;19938;-75
2024/04/29 03:48:53;;;;;;;;;;;;;;;;;;5298331;27;19938;-73
2024/04/29 03:51:21;;;;;;;;;;;;;;;;;;5299572;27;19950;-73
2024/04/29 03:53:47;;;;;;;;;;;;;;;;;;5301165;26;20515;-73
2024/04/29 03:56:16;;;;;;;;;;;;;;;;;;5303544;26;20000;-73
2024/04/29 03:58:42;;;;;;;;;;;;;;;;;;5303283;26;19931;-73
2024/04/29 04:01:11;;;;;;;;;;;;;;;;;;5302763;26;19985;-74
2024/04/29 04:03:37;;;;;;;;;;;;;;;;;;5303551;27;19930;-74
2024/04/29 04:06:06;;;;;;;;;;;;;;;;;;5303628;27;20384;-74
2024/04/29 04:08:32;;;;;;;;;;;;;;;;;;5306498;27;20062;-74
2024/04/29 04:11:00;;;;;;;;;;;;;;;;;;5308030;26;19934;-74
2024/04/29 04:13:27;;;;;;;;;;;;;;;;;;5307251;26;19931;-73
2024/04/29 04:15:55;;;;;;;;;;;;;;;;;;5307372;27;19958;-74
2024/04/29 04:18:21;;;;;;;;;;;;;;;;;;5305575;27;20277;-77
2024/04/29 04:20:50;;;;;;;;;;;;;;;;;;5306356;27;20017;-73
2024/04/29 04:23:16;;;;;;;;;;;;;;;;;;5306385;26;19930;-74
2024/04/29 04:25:45;;;;;;;;;;;;;;;;;;5306563;27;20015;-73
2024/04/29 04:28:11;;;;;;;;;;;;;;;;;;5305566;26;19937;-72
2024/04/29 04:30:40;;;;;;;;;;;;;;;;;;5308547;26;19942;-72
2024/04/29 04:33:06;;;;;;;;;;;;;;;;;;5309929;26;19982;-73
2024/04/29 04:35:34;;;;;;;;;;;;;;;;;;5307637;26;19938;-73
2024/04/29 04:38:01;;;;;;;;;;;;;;;;;;5307363;27;19930;-72
2024/04/29 04:40:29;;;;;;;;;;;;;;;;;;5308662;27;19955;-74
2024/04/29 04:42:55;;;;;;;;;;;;;;;;;;5309607;26;19930;-72
2024/04/29 04:45:24;;;;;;;;;;;;;;;;;;5311369;27;20023;-73
2024/04/29 04:47:52;;;;;;;;;;;;;;;;;;5308778;27;19937;-74
2024/04/29 04:50:21;;;;;;;;;;;;;;;;;;5304385;27;20362;-73
2024/04/29 04:52:47;;;;;;;;;;;;;;;;;;5308173;26;19963;-72
2024/04/29 04:55:16;;;;;;;;;;;;;;;;;;5308426;27;19966;-70
2024/04/29 04:57:42;;;;;;;;;;;;;;;;;;5307617;27;19935;-70
2024/04/29 05:00:10;;;;;;;;;;;;;;;;;;5303407;26;20622;-70
2024/04/29 05:02:36;;;;;;;;;;;;;;;;;;5293123;27;19930;-70
2024/04/29 05:05:05;;;;;;;;;;;;;;;;;;5294451;27;19942;-71
2024/04/29 05:07:31;;;;;;;;;;;;;;;;;;5304157;27;20369;-70
2024/04/29 05:10:00;;;;;;;;;;;;;;;;;;5304980;27;19937;-70
2024/04/29 05:12:26;;;;;;;;;;;;;;;;;;5300064;26;19934;-70
2024/04/29 05:14:55;;;;;;;;;;;;;;;;;;5306587;26;20000;-71
2024/04/29 05:17:21;;;;;;;;;;;;;;;;;;5305915;27;19937;-71
2024/04/29 05:19:50;;;;;;;;;;;;;;;;;;5292392;27;19930;-70
2024/04/29 05:22:16;;;;;;;;;;;;;;;;;;5305582;27;19938;-70
2024/04/29 05:24:44;;;;;;;;;;;;;;;;;;5296375;27;20003;-69
2024/04/29 05:27:11;;;;;;;;;;;;;;;;;;5300004;27;19937;-71
2024/04/29 05:29:40;;;;;;;;;;;;;;;;;;5306321;27;19938;-70
2024/04/29 05:32:06;;;;;;;;;;;;;;;;;;5306828;26;19930;-71
2024/04/29 05:34:34;;;;;;;;;;;;;;;;;;5306024;26;20369;-71
2024/04/29 05:37:00;;;;;;;;;;;;;;;;;;5304803;27;20286;-71
2024/04/29 05:39:29;;;;;;;;;;;;;;;;;;5305997;27;20447;-72
2024/04/29 05:41:55;;;;;;;;;;;;;;;;;;5294157;27;19996;-71
2024/04/29 05:44:25;;;;;;;;;;;;;;;;;;5301212;27;19938;-71
2024/04/29 05:46:51;;;;;;;;;;;;;;;;;;5303957;27;20332;-71
2024/04/29 05:49:20;;;;;;;;;;;;;;;;;;5297946;27;19939;-71
2024/04/29 05:51:46;;;;;;;;;;;;;;;;;;5305547;26;19930;-71
2024/04/29 05:54:14;;;;;;;;;;;;;;;;;;5305898;27;20302;-71
2024/04/29 05:56:40;;;;;;;;;;;;;;;;;;5306071;26;19930;-71
2024/04/29 05:59:09;;;;;;;;;;;;;;;;;;5306476;26;19931;-71
2024/04/29 06:01:35;;;;;;;;;;;;;;;;;;5305942;27;20251;-71
2024/04/29 06:04:04;;;;;;;;;;;;;;;;;;5306212;27;20038;-71
2024/04/29 06:06:30;;;;;;;;;;;;;;;;;;5306075;26;20409;-71
2024/04/29 06:08:59;;;;;;;;;;;;;;;;;;5303460;26;19930;-71
2024/04/29 06:11:25;;;;;;;;;;;;;;;;;;5297517;27;19930;-70
2024/04/29 06:13:53;;;;;;;;;;;;;;;;;;5303906;26;20501;-71
2024/04/29 06:16:20;;;;;;;;;;;;;;;;;;5306211;27;21064;-71
2024/04/29 06:18:48;;;;;;;;;;;;;;;;;;5296975;26;19938;-70
2024/04/29 06:21:14;;;;;;;;;;;;;;;;;;5305354;26;19935;-70
2024/04/29 06:23:43;;;;;;;;;;;;;;;;;;5305956;26;19934;-70
2024/04/29 06:26:09;;;;;;;;;;;;;;;;;;5305530;27;19931;-70
2024/04/29 06:28:38;;;;;;;;;;;;;;;;;;5305322;27;19931;-71
2024/04/29 06:31:04;;;;;;;;;;;;;;;;;;5294928;27;19938;-70
2024/04/29 06:33:32;;;;;;;;;;;;;;;;;;5301575;27;19944;-70
2024/04/29 06:35:59;;;;;;;;;;;;;;;;;;5302258;27;19938;-69
2024/04/29 06:38:27;;;;;;;;;;;;;;;;;;5304659;27;19966;-71
2024/04/29 06:40:53;;;;;;;;;;;;;;;;;;5300738;27;19930;-71
2024/04/29 06:43:22;;;;;;;;;;;;;;;;;;5297757;27;20008;-70
2024/04/29 06:45:48;;;;;;;;;;;;;;;;;;5304294;27;19937;-70
2024/04/29 06:48:17;;;;;;;;;;;;;;;;;;5287555;26;19980;-69
2024/04/29 06:50:43;;;;;;;;;;;;;;;;;;5302352;26;19930;-69
2024/04/29 06:53:11;;;;;;;;;;;;;;;;;;5299974;26;20294;-69
2024/04/29 06:55:38;;;;;;;;;;;;;;;;;;5297971;26;19930;-70
2024/04/29 06:58:08;;;;;;;;;;;;;;;;;;5298898;26;20468;-70
2024/04/29 07:00:34;;;;;;;;;;;;;;;;;;5300954;27;19941;-69
2024/04/29 07:03:02;;;;;;;;;;;;;;;;;;5303895;27;19997;-67
2024/04/29 07:05:28;;;;;;;;;;;;;;;;;;5304473;26;19930;-67
2024/04/29 07:07:57;;;;;;;;;;;;;;;;;;5301410;26;19930;-67
2024/04/29 07:10:23;;;;;;;;;;;;;;;;;;5306806;26;19946;-68
2024/04/29 07:12:52;;;;;;;;;;;;;;;;;;5298776;27;19935;-68
2024/04/29 07:15:18;;;;;;;;;;;;;;;;;;5308179;26;19934;-68
2024/04/29 07:17:46;;;;;;;;;;;;;;;;;;5301633;26;19934;-69
2024/04/29 07:20:12;;;;;;;;;;;;;;;;;;5304004;26;19937;-69
2024/04/29 07:22:41;;;;;;;;;;;;;;;;;;5304193;26;19978;-70
2024/04/29 07:25:07;;;;;;;;;;;;;;;;;;5304363;26;19935;-69
2024/04/29 07:27:36;;;;;;;;;;;;;;;;;;5304674;26;20017;-70
2024/04/29 07:30:02;;;;;;;;;;;;;;;;;;5306368;26;19958;-69
2024/04/29 07:32:31;;;;;;;;;;;;;;;;;;5304124;27;19958;-67
2024/04/29 07:34:57;;;;;;;;;;;;;;;;;;5303832;27;19935;-69
2024/04/29 07:37:25;;;;;;;;;;;;;;;;;;5302176;27;19966;-68
2024/04/29 07:39:52;;;;;;;;;;;;;;;;;;5304281;26;19930;-68
2024/04/29 07:42:20;;;;;;;;;;;;;;;;;;5303490;27;19938;-66
2024/04/29 07:44:46;;;;;;;;;;;;;;;;;;5301582;27;19931;-68
2024/04/29 07:47:15;;;;;;;;;;;;;;;;;;5303051;26;20394;-68
2024/04/29 07:49:41;;;;;;;;;;;;;;;;;;5306085;26;19931;-68
2024/04/29 07:52:10;;;;;;;;;;;;;;;;;;5303474;27;19949;-68
2024/04/29 07:54:36;;;;;;;;;;;;;;;;;;5301907;26;20009;-68
2024/04/29 07:57:04;;;;;;;;;;;;;;;;;;5309285;26;19938;-68
2024/04/29 07:59:30;;;;;;;;;;;;;;;;;;5306490;26;19930;-68
2024/04/29 08:01:59;;;;;;;;;;;;;;;;;;5317236;26;20343;-68
2024/04/29 08:04:25;;;;;;;;;;;;;;;;;;5296924;26;19931;-69
2024/04/29 08:06:54;;;;;;;;;;;;;;;;;;5310582;26;19936;-68
2024/04/29 08:09:20;;;;;;;;;;;;;;;;;;5304166;27;19931;-69
2024/04/29 08:11:48;;;;;;;;;;;;;;;;;;5304118;27;19937;-68
2024/04/29 08:14:14;;;;;;;;;;;;;;;;;;5303627;27;19931;-68
2024/04/29 08:16:44;;;;;;;;;;;;;;;;;;5308363;26;19946;-68
2024/04/29 08:19:10;;;;;;;;;;;;;;;;;;5314866;26;19934;-68
2024/04/29 08:21:39;;;;;;;;;;;;;;;;;;5279444;26;19957;-68
2024/04/29 08:24:05;;;;;;;;;;;;;;;;;;5299353;26;19974;-69
2024/04/29 08:26:33;;;;;;;;;;;;;;;;;;5303415;26;20413;-69
2024/04/29 08:29:00;;;;;;;;;;;;;;;;;;5306426;26;19931;-69
2024/04/29 08:31:28;;;;;;;;;;;;;;;;;;5302535;26;19930;-69
2024/04/29 08:33:54;;;;;;;;;;;;;;;;;;5302623;26;19935;-69
2024/04/29 08:36:23;;;;;;;;;;;;;;;;;;5313451;26;20379;-69
2024/04/29 08:38:49;;;;;;;;;;;;;;;;;;5300870;26;20377;-68
2024/04/29 08:41:18;;;;;;;;;;;;;;;;;;5305583;26;19931;-69
2024/04/29 08:43:45;;;;;;;;;;;;;;;;;;5315802;26;20311;-69
2024/04/29 08:46:13;;;;;;;;;;;;;;;;;;5314701;26;19985;-69
2024/04/29 08:48:39;;;;;;;;;;;;;;;;;;5304278;26;19939;-69
2024/04/29 08:51:08;;;;;;;;;;;;;;;;;;5303665;26;19930;-69
2024/04/29 08:53:34;;;;;;;;;;;;;;;;;;5306585;26;19941;-69
2024/04/29 08:56:03;;;;;;;;;;;;;;;;;;5309695;26;20461;-69
2024/04/29 08:58:29;;;;;;;;;;;;;;;;;;5308463;26;19934;-69
2024/04/29 09:00:58;;;;;;;;;;;;;;;;;;5307687;27;19937;-69
2024/04/29 09:03:24;;;;;;;;;;;;;;;;;;5308976;26;19930;-69
2024/04/29 09:05:52;;;;;;;;;;;;;;;;;;5308835;26;19937;-69
2024/04/29 09:08:18;;;;;;;;;;;;;;;;;;5306932;26;19967;-69
2024/04/29 09:10:48;;;;;;;;;;;;;;;;;;5308894;26;19939;-69
2024/04/29 09:13:16;;;;;;;;;;;;;;;;;;5302371;27;19937;-69
2024/04/29 09:15:43;;;;;;;;;;;;;;;;;;5306172;27;19930;-69
2024/04/29 09:18:11;;;;;;;;;;;;;;;;;;5306662;27;19938;-69
2024/04/29 09:20:37;;;;;;;;;;;;;;;;;;5302965;26;20030;-69
2024/04/29 09:23:06;;;;;;;;;;;;;;;;;;5320949;26;19939;-68
2024/04/29 09:25:32;;;;;;;;;;;;;;;;;;5306388;27;20455;-69
2024/04/29 09:28:01;;;;;;;;;;;;;;;;;;5319386;26;19957;-69
2024/04/29 09:30:27;;;;;;;;;;;;;;;;;;5306531;26;19937;-69
2024/04/29 09:32:56;;;;;;;;;;;;;;;;;;5305960;26;20015;-69
2024/04/29 09:35:22;;;;;;;;;;;;;;;;;;5323137;26;19937;-69
2024/04/29 09:37:51;;;;;;;;;;;;;;;;;;5308547;26;19942;-70
2024/04/29 09:40:17;;;;;;;;;;;;;;;;;;5310774;26;20004;-69
2024/04/29 09:42:45;;;;;;;;;;;;;;;;;;5320394;26;19966;-69
2024/04/29 09:45:12;;;;;;;;;;;;;;;;;;5316180;26;19937;-69
2024/04/29 09:47:40;;;;;;;;;;;;;;;;;;5302912;26;20276;-69
2024/04/29 09:50:07;;;;;;;;;;;;;;;;;;5306452;26;19941;-69
2024/04/29 09:52:35;;;;;;;;;;;;;;;;;;5316580;26;20379;-70
2024/04/29 09:55:02;;;;;;;;;;;;;;;;;;5313454;26;19935;-70
2024/04/29 09:57:31;;;;;;;;;;;;;;;;;;5304095;26;19941;-70
2024/04/29 09:59:57;;;;;;;;;;;;;;;;;;5303473;27;20468;-69
2024/04/29 10:02:26;;;;;;;;;;;;;;;;;;5301046;27;19985;-69
2024/04/29 10:04:52;;;;;;;;;;;;;;;;;;5303718;26;20174;-72
2024/04/29 10:07:20;;;;;;;;;;;;;;;;;;5303734;26;19931;-71
2024/04/29 10:09:47;;;;;;;;;;;;;;;;;;5303002;26;20274;-70
2024/04/29 10:12:15;;;;;;;;;;;;;;;;;;5301862;27;20377;-71
2024/04/29 10:14:41;;;;;;;;;;;;;;;;;;5304066;26;19930;-70
2024/04/29 10:17:10;;;;;;;;;;;;;;;;;;5300582;27;19934;-70
2024/04/29 10:19:36;;;;;;;;;;;;;;;;;;5296165;27;20342;-71
2024/04/29 10:22:05;;;;;;;;;;;;;;;;;;5305878;27;19935;-70
2024/04/29 10:24:31;;;;;;;;;;;;;;;;;;5299795;27;19931;-69
2024/04/29 10:26:59;;;;;;;;;;;;;;;;;;5305528;27;20000;-72
2024/04/29 10:29:25;;;;;;;;;;;;;;;;;;5298873;27;19930;-70
2024/04/29 10:31:54;;;;;;;;;;;;;;;;;;5296369;27;19946;-73
2024/04/29 10:34:20;;;;;;;;;;;;;;;;;;5302055;26;19937;-70
2024/04/29 10:36:49;;;;;;;;;;;;;;;;;;5301553;27;19946;-70
2024/04/29 10:39:15;;;;;;;;;;;;;;;;;;5301477;26;19945;-71
2024/04/29 10:41:44;;;;;;;;;;;;;;;;;;5304381;27;19940;-71
2024/04/29 10:44:11;;;;;;;;;;;;;;;;;;5306722;26;19962;-71
2024/04/29 10:46:41;;;;;;;;;;;;;;;;;;5305451;26;20326;-71
2024/04/29 10:49:10;;;;;;;;;;;;;;;;;;5302532;27;19950;-71
2024/04/29 10:51:36;;;;;;;;;;;;;;;;;;5304534;26;20370;-71
2024/04/29 10:54:04;;;;;;;;;;;;;;;;;;5304125;26;20277;-68
2024/04/29 10:56:30;;;;;;;;;;;;;;;;;;5308124;26;19938;-68
2024/04/29 10:58:59;;;;;;;;;;;;;;;;;;5319581;26;19966;-68
2024/04/29 11:01:25;;;;;;;;;;;;;;;;;;5304753;27;20273;-68
2024/04/29 11:03:54;;;;;;;;;;;;;;;;;;5315103;26;19930;-67
2024/04/29 11:06:20;;;;;;;;;;;;;;;;;;5306303;26;19930;-68
2024/04/29 11:08:48;;;;;;;;;;;;;;;;;;5294678;26;19931;-68
2024/04/29 11:11:15;;;;;;;;;;;;;;;;;;5305568;26;19930;-67
2024/04/29 11:13:43;;;;;;;;;;;;;;;;;;5303511;26;20029;-68
2024/04/29 11:16:09;;;;;;;;;;;;;;;;;;5307704;26;19930;-68
2024/04/29 11:18:38;;;;;;;;;;;;;;;;;;5304924;26;19931;-68
2024/04/29 11:21:05;;;;;;;;;;;;;;;;;;5300525;27;19931;-68
2024/04/29 11:23:33;;;;;;;;;;;;;;;;;;5302633;26;20491;-69
2024/04/29 11:25:59;;;;;;;;;;;;;;;;;;5292124;26;19946;-68
2024/04/29 11:28:28;;;;;;;;;;;;;;;;;;5302706;27;20549;-68
2024/04/29 11:30:54;;;;;;;;;;;;;;;;;;5301246;26;19937;-68
2024/04/29 11:33:23;;;;;;;;;;;;;;;;;;5295431;27;19937;-68
2024/04/29 11:35:49;;;;;;;;;;;;;;;;;;5301914;27;19941;-68
2024/04/29 11:38:18;;;;;;;;;;;;;;;;;;5321334;26;20442;-68
2024/04/29 11:40:44;;;;;;;;;;;;;;;;;;5312017;26;20273;-69
2024/04/29 11:43:12;;;;;;;;;;;;;;;;;;5330176;26;19954;-68
2024/04/29 11:45:38;;;;;;;;;;;;;;;;;;5325161;26;20361;-69
2024/04/29 11:48:07;;;;;;;;;;;;;;;;;;5304459;27;19939;-68
2024/04/29 11:50:33;;;;;;;;;;;;;;;;;;5310037;26;19935;-68
2024/04/29 11:53:02;;;;;;;;;;;;;;;;;;5326494;26;20521;-68
2024/04/29 11:55:28;;;;;;;;;;;;;;;;;;5306091;26;19938;-68
2024/04/29 11:57:56;;;;;;;;;;;;;;;;;;5305095;26;20470;-69
2024/04/29 12:00:23;;;;;;;;;;;;;;;;;;5301003;26;19945;-68
2024/04/29 12:02:51;;;;;;;;;;;;;;;;;;5308938;26;20492;-69
2024/04/29 12:05:17;;;;;;;;;;;;;;;;;;5310456;26;19930;-68
2024/04/29 12:07:46;;;;;;;;;;;;;;;;;;5304304;26;20020;-69
2024/04/29 12:10:12;;;;;;;;;;;;;;;;;;5310459;26;19930;-68
2024/04/29 12:12:41;;;;;;;;;;;;;;;;;;5304891;26;20355;-69
2024/04/29 12:15:07;;;;;;;;;;;;;;;;;;5301508;27;20322;-68
2024/04/29 12:17:35;;;;;;;;;;;;;;;;;;5302519;27;19938;-68
2024/04/29 12:20:01;;;;;;;;;;;;;;;;;;5306281;26;20381;-69
2024/04/29 12:22:30;;;;;;;;;;;;;;;;;;5312462;26;19977;-68
2024/04/29 12:24:56;;;;;;;;;;;;;;;;;;5304660;26;20369;-70
2024/04/29 12:27:25;;;;;;;;;;;;;;;;;;5305157;26;19942;-70
2024/04/29 12:29:52;;;;;;;;;;;;;;;;;;5304535;26;20357;-69
2024/04/29 12:32:21;;;;;;;;;;;;;;;;;;5313690;26;20072;-69
2024/04/29 12:34:47;;;;;;;;;;;;;;;;;;5305168;26;20266;-70
2024/04/29 12:37:15;;;;;;;;;;;;;;;;;;5305427;27;20073;-68
2024/04/29 12:39:41;;;;;;;;;;;;;;;;;;5306457;26;20227;-69
2024/04/29 12:42:10;;;;;;;;;;;;;;;;;;5315839;26;19931;-69
2024/04/29 12:44:36;;;;;;;;;;;;;;;;;;5326797;26;19937;-72
2024/04/29 12:47:05;;;;;;;;;;;;;;;;;;5309675;26;20009;-72
2024/04/29 12:49:34;;;;;;;;;;;;;;;;;;5313376;26;20013;-72
2024/04/29 12:52:03;;;;;;;;;;;;;;;;;;5311340;26;19931;-74
2024/04/29 12:54:29;;;;;;;;;;;;;;;;;;5313711;26;19931;-73
2024/04/29 12:56:58;;;;;;;;;;;;;;;;;;5307133;26;19930;-73
2024/04/29 12:59:24;;;;;;;;;;;;;;;;;;5306494;27;19996;-74
2024/04/29 13:01:52;;;;;;;;;;;;;;;;;;5297157;26;19938;-74
2024/04/29 13:04:18;;;;;;;;;;;;;;;;;;5302498;27;19930;-73
2024/04/29 13:06:47;;;;;;;;;;;;;;;;;;5308265;26;19930;-74
2024/04/29 13:09:13;;;;;;;;;;;;;;;;;;5305706;26;20037;-73
2024/04/29 13:11:42;;;;;;;;;;;;;;;;;;5306745;26;19966;-76
2024/04/29 13:14:08;;;;;;;;;;;;;;;;;;5308258;26;19931;-73
2024/04/29 13:16:37;;;;;;;;;;;;;;;;;;5319535;26;19930;-74
2024/04/29 13:19:03;;;;;;;;;;;;;;;;;;5307113;26;19934;-74
2024/04/29 13:21:32;;;;;;;;;;;;;;;;;;5310703;26;19941;-70
2024/04/29 13:23:59;;;;;;;;;;;;;;;;;;5303463;27;19934;-68
2024/04/29 13:26:28;;;;;;;;;;;;;;;;;;5304858;26;19962;-70
2024/04/29 13:28:54;;;;;;;;;;;;;;;;;;5301344;27;19931;-70
2024/04/29 13:31:23;;;;;;;;;;;;;;;;;;5305154;26;20010;-71
2024/04/29 13:33:49;;;;;;;;;;;;;;;;;;5305565;27;20487;-70
2024/04/29 13:36:18;;;;;;;;;;;;;;;;;;5305450;27;19930;-69
2024/04/29 13:38:44;;;;;;;;;;;;;;;;;;5316196;26;20490;-71
2024/04/29 13:41:12;;;;;;;;;;;;;;;;;;5310128;26;19935;-71
2024/04/29 13:43:39;;;;;;;;;;;;;;;;;;5322010;26;19938;-70
2024/04/29 13:46:08;;;;;;;;;;;;;;;;;;5311118;26;20285;-71
2024/04/29 13:48:34;;;;;;;;;;;;;;;;;;5318374;26;19931;-71
2024/04/29 13:51:02;;;;;;;;;;;;;;;;;;5313499;26;20382;-70
2024/04/29 13:53:28;;;;;;;;;;;;;;;;;;5324551;26;20378;-71
2024/04/29 13:55:57;;;;;;;;;;;;;;;;;;5303457;26;19931;-70
2024/04/29 13:58:23;;;;;;;;;;;;;;;;;;5305538;26;19934;-71
2024/04/29 14:00:52;;;;;;;;;;;;;;;;;;5304588;27;20012;-70
2024/04/29 14:03:21;;;;;;;;;;;;;;;;;;5294933;26;19942;-69
2024/04/29 14:05:47;;;;;;;;;;;;;;;;;;5302837;26;19941;-69
2024/04/29 14:08:15;;;;;;;;;;;;;;;;;;5307013;26;19938;-70
2024/04/29 14:10:41;;;;;;;;;;;;;;;;;;5316509;26;19938;-69
2024/04/29 14:13:10;;;;;;;;;;;;;;;;;;5317609;26;19929;-71
2024/04/29 14:15:36;;;;;;;;;;;;;;;;;;5310828;26;19942;-70
2024/04/29 14:18:05;;;;;;;;;;;;;;;;;;5310307;26;19939;-71
2024/04/29 14:20:31;;;;;;;;;;;;;;;;;;5306626;26;19938;-69
2024/04/29 14:23:00;;;;;;;;;;;;;;;;;;5304776;26;19959;-71
2024/04/29 14:25:26;;;;;;;;;;;;;;;;;;5306033;26;19930;-70
2024/04/29 14:27:54;;;;;;;;;;;;;;;;;;5303867;26;21570;-70
2024/04/29 14:30:20;;;;;;;;;;;;;;;;;;5315754;26;19930;-69
2024/04/29 14:32:49;;;;;;;;;;;;;;;;;;5303022;26;20049;-69
2024/04/29 14:35:15;;;;;;;;;;;;;;;;;;5303937;27;19954;-69
2024/04/29 14:37:45;;;;;;;;;;;;;;;;;;5303986;27;19930;-69
2024/04/29 14:40:11;;;;;;;;;;;;;;;;;;5304777;27;19937;-71
2024/04/29 14:42:40;;;;;;;;;;;;;;;;;;5304019;26;19939;-71
2024/04/29 14:45:06;;;;;;;;;;;;;;;;;;5304523;27;19942;-71
2024/04/29 14:47:35;;;;;;;;;;;;;;;;;;5304872;27;19958;-71
2024/04/29 14:50:02;;;;;;;;;;;;;;;;;;5292604;27;19980;-70
2024/04/29 14:52:30;;;;;;;;;;;;;;;;;;5304249;27;20018;-70
2024/04/29 14:54:57;;;;;;;;;;;;;;;;;;5304328;27;20273;-68
2024/04/29 14:57:25;;;;;;;;;;;;;;;;;;5301645;27;20044;-71
2024/04/29 14:59:51;;;;;;;;;;;;;;;;;;5292974;27;19933;-72
2024/04/29 15:02:20;;;;;;;;;;;;;;;;;;5298233;27;19930;-70
2024/04/29 15:04:46;;;;;;;;;;;;;;;;;;5304141;27;19945;-70
2024/04/29 15:07:15;;;;;;;;;;;;;;;;;;5304995;27;19992;-70
2024/04/29 15:09:41;;;;;;;;;;;;;;;;;;5300402;27;19942;-70
2024/04/29 15:12:09;;;;;;;;;;;;;;;;;;5304330;27;19970;-70
2024/04/29 15:14:35;;;;;;;;;;;;;;;;;;5301054;26;19930;-70
2024/04/29 15:17:04;;;;;;;;;;;;;;;;;;5303424;26;19966;-71
2024/04/29 15:19:30;;;;;;;;;;;;;;;;;;5302041;27;19931;-71
2024/04/29 15:21:59;;;;;;;;;;;;;;;;;;5300242;26;19930;-70
2024/04/29 15:24:25;;;;;;;;;;;;;;;;;;5304498;26;19961;-71
2024/04/29 15:26:58;;;;;;;;;;;;;;;;;;5303923;27;20230;-71
2024/04/29 15:29:24;;;;;;;;;;;;;;;;;;5303725;26;19939;-71
2024/04/29 15:31:54;;;;;;;;;;;;;;;;;;5296617;26;20302;-71
2024/04/29 15:34:20;;;;;;;;;;;;;;;;;;5295063;27;20008;-71
2024/04/29 15:36:49;;;;;;;;;;;;;;;;;;5303497;26;19954;-72
2024/04/29 15:39:15;;;;;;;;;;;;;;;;;;5303677;26;19961;-69
2024/04/29 15:41:43;;;;;;;;;;;;;;;;;;5303584;27;19989;-70
2024/04/29 15:44:09;;;;;;;;;;;;;;;;;;5295167;26;19941;-70
2024/04/29 15:46:38;;;;;;;;;;;;;;;;;;5304261;27;19930;-71
2024/04/29 15:49:04;;;;;;;;;;;;;;;;;;5303476;26;19943;-70
2024/04/29 15:51:33;;;;;;;;;;;;;;;;;;5303391;27;20329;-71
2024/04/29 15:53:59;;;;;;;;;;;;;;;;;;5303971;26;19930;-71
2024/04/29 15:56:28;;;;;;;;;;;;;;;;;;5299802;27;20302;-69
2024/04/29 15:58:56;;;;;;;;;;;;;;;;;;5303180;26;19938;-69
2024/04/29 16:01:25;;;;;;;;;;;;;;;;;;5288593;27;19937;-69
2024/04/29 16:03:51;;;;;;;;;;;;;;;;;;5289901;27;19938;-70
2024/04/29 16:06:19;;;;;;;;;;;;;;;;;;5307219;26;19930;-70
2024/04/29 16:08:45;;;;;;;;;;;;;;;;;;5306657;26;20026;-70
2024/04/29 16:11:14;;;;;;;;;;;;;;;;;;5306270;27;20265;-70
2024/04/29 16:13:40;;;;;;;;;;;;;;;;;;5307356;27;20054;-70
2024/04/29 16:16:09;;;;;;;;;;;;;;;;;;5307889;27;20456;-70
2024/04/29 16:18:35;;;;;;;;;;;;;;;;;;5299729;27;19937;-72
2024/04/29 16:21:04;;;;;;;;;;;;;;;;;;5298680;27;19946;-70
2024/04/29 16:23:30;;;;;;;;;;;;;;;;;;5301064;26;19930;-70
2024/04/29 16:25:59;;;;;;;;;;;;;;;;;;5307088;26;19930;-70
2024/04/29 16:28:25;;;;;;;;;;;;;;;;;;5304075;26;20250;-68
2024/04/29 16:30:53;;;;;;;;;;;;;;;;;;5306018;27;20021;-68
2024/04/29 16:33:19;;;;;;;;;;;;;;;;;;5305222;27;20445;-68
2024/04/29 16:35:48;;;;;;;;;;;;;;;;;;5303920;26;20321;-69
2024/04/29 16:38:14;;;;;;;;;;;;;;;;;;5298912;26;19946;-68
2024/04/29 16:40:43;;;;;;;;;;;;;;;;;;5299010;26;19930;-68
2024/04/29 16:43:09;;;;;;;;;;;;;;;;;;5300281;26;19931;-68
2024/04/29 16:45:38;;;;;;;;;;;;;;;;;;5303594;27;19930;-68